Wetterdaten: Woche 05.05.03 - 11.05.03 (KW19)
Datum Zeit Temperatur Luftfeuchte Luftdruck Regenmenge Wind Richtung Taupunkt Windchill
05.05.2003 00:00 11.2 C 81 % 1018.0 hPa 0.0 l/m 3.0 km/h (1 Bft) O 8.1 C 11.2 C
05.05.2003 01:00 10.1 C 86 % 1018.0 hPa 0.0 l/m 2.7 km/h (1 Bft) O-SO 7.8 C 10.0 C
05.05.2003 02:00 9.3 C 89 % 1018.0 hPa 0.0 l/m 1.8 km/h (1 Bft) O-SO 7.5 C 9.1 C
05.05.2003 03:00 8.9 C 92 % 1018.0 hPa 0.0 l/m 0.4 km/h (0 Bft) O-SO 7.7 C 8.9 C
05.05.2003 04:00 8.5 C 95 % 1017.3 hPa 0.0 l/m 3.4 km/h (1 Bft) O-SO 7.6 C 8.1 C
05.05.2003 05:00 7.8 C 97 % 1016.9 hPa 0.0 l/m 0.0 km/h (0 Bft) N 7.4 C 7.8 C
05.05.2003 06:00 8.3 C 98 % 1016.7 hPa 0.0 l/m 4.2 km/h (1 Bft) O-SO 8.1 C 7.7 C
05.05.2003 07:00 10.3 C 84 % 1016.7 hPa 0.0 l/m 4.7 km/h (1 Bft) NW 7.8 C 10.1 C
05.05.2003 08:00 12.9 C 73 % 1016.7 hPa 0.0 l/m 8.1 km/h (2 Bft) O-SO 8.0 C 12.9 C
05.05.2003 09:00 15.6 C 63 % 1016.3 hPa 0.0 l/m 2.3 km/h (1 Bft) O-NO 8.5 C 15.6 C
05.05.2003 10:00 18.1 C 54 % 1015.9 hPa 0.0 l/m 5.8 km/h (2 Bft) O-SO 8.6 C 18.1 C
05.05.2003 11:00 20.6 C 48 % 1015.9 hPa 0.0 l/m 4.1 km/h (1 Bft) W-NW 9.1 C 20.6 C
05.05.2003 12:00 22.9 C 39 % 1015.1 hPa 0.0 l/m 1.7 km/h (1 Bft) W-NW 8.2 C 22.9 C
05.05.2003 13:00 24.7 C 37 % 1014.2 hPa 0.0 l/m 3.4 km/h (1 Bft) W-NW 9.1 C 24.7 C
05.05.2003 14:00 26.1 C 33 % 1013.8 hPa 0.0 l/m 2.4 km/h (1 Bft) W-NW 8.6 C 26.1 C
05.05.2003 15:00 26.3 C 35 % 1012.9 hPa 0.0 l/m 3.3 km/h (1 Bft) W-NW 9.3 C 26.3 C
05.05.2003 16:00 26.0 C 33 % 1012.8 hPa 0.0 l/m 5.9 km/h (2 Bft) W-NW 8.6 C 26.0 C
05.05.2003 17:00 25.4 C 37 % 1012.8 hPa 0.0 l/m 1.3 km/h (1 Bft) O-SO 9.6 C 25.4 C
05.05.2003 18:00 24.3 C 45 % 1011.8 hPa 0.0 l/m 3.0 km/h (1 Bft) O-SO 11.7 C 24.3 C
05.05.2003 19:00 22.8 C 51 % 1011.7 hPa 0.0 l/m 0.0 km/h (0 Bft) O 12.1 C 22.8 C
05.05.2003 20:00 19.7 C 68 % 1011.7 hPa 0.0 l/m 3.2 km/h (1 Bft) O 13.5 C 19.7 C
05.05.2003 21:00 17.8 C 75 % 1012.5 hPa 0.0 l/m 3.2 km/h (1 Bft) O-SO 13.4 C 17.8 C
05.05.2003 22:00 16.2 C 81 % 1012.8 hPa 0.0 l/m 2.0 km/h (1 Bft) O-SO 12.9 C 16.2 C
05.05.2003 23:00 15.2 C 84 % 1012.8 hPa 0.0 l/m 3.2 km/h (1 Bft) O-SO 12.4 C 15.2 C
06.05.2003 00:00 14.5 C 87 % 1012.8 hPa 0.0 l/m 1.3 km/h (1 Bft) O-SO 12.4 C 14.5 C
06.05.2003 01:00 14.1 C 90 % 1013.6 hPa 0.0 l/m 2.2 km/h (1 Bft) O-SO 12.4 C 14.1 C
06.05.2003 02:00 13.5 C 93 % 1013.8 hPa 0.0 l/m 2.7 km/h (1 Bft) O-SO 12.4 C 13.5 C
06.05.2003 03:00 13.1 C 95 % 1014.2 hPa 0.0 l/m 2.7 km/h (1 Bft) O-SO 12.4 C 13.1 C
06.05.2003 04:00 12.2 C 98 % 1014.8 hPa 0.0 l/m 2.9 km/h (1 Bft) O-SO 11.8 C 12.2 C
06.05.2003 05:00 11.4 C 99 % 1014.9 hPa 0.0 l/m 0.8 km/h (0 Bft) O-SO 11.2 C 11.4 C
06.05.2003 06:00 11.4 C 99 % 1015.9 hPa 0.0 l/m 0.0 km/h (0 Bft) N 11.2 C 11.4 C
06.05.2003 07:00 12.4 C 97 % 1015.9 hPa 0.0 l/m 0.3 km/h (0 Bft) O-SO 11.9 C 12.4 C
06.05.2003 08:00 13.8 C 91 % 1016.3 hPa 0.0 l/m 0.0 km/h (0 Bft) N 12.2 C 13.8 C
06.05.2003 09:00 16.1 C 74 % 1016.3 hPa 0.0 l/m 0.4 km/h (0 Bft) S 11.4 C 16.1 C
06.05.2003 10:00 19.0 C 62 % 1016.9 hPa 0.0 l/m 0.1 km/h (0 Bft) N 11.5 C 19.0 C
06.05.2003 11:00 21.4 C 56 % 1016.9 hPa 0.0 l/m 0.1 km/h (0 Bft) NW 12.3 C 21.4 C
06.05.2003 12:00 24.2 C 46 % 1017.1 hPa 0.0 l/m 2.4 km/h (1 Bft) W-NW 11.9 C 24.2 C
06.05.2003 13:00 24.2 C 45 % 1017.3 hPa 0.0 l/m 12.7 km/h (3 Bft) W-NW 11.5 C 24.2 C
06.05.2003 14:00 24.7 C 46 % 1017.4 hPa 0.0 l/m 9.5 km/h (2 Bft) W-NW 12.4 C 24.7 C
06.05.2003 15:00 25.3 C 45 % 1017.9 hPa 0.0 l/m 8.4 km/h (2 Bft) W-NW 12.5 C 25.3 C
06.05.2003 16:00 25.7 C 44 % 1017.0 hPa 0.0 l/m 8.6 km/h (2 Bft) W-NW 12.6 C 25.7 C
06.05.2003 17:00 27.0 C 40 % 1017.2 hPa 0.0 l/m 10.5 km/h (2 Bft) W-NW 12.3 C 27.0 C
06.05.2003 18:00 26.4 C 43 % 1018.0 hPa 0.0 l/m 5.1 km/h (1 Bft) W-NW 12.8 C 26.4 C
06.05.2003 19:00 24.8 C 45 % 1018.0 hPa 0.0 l/m 1.6 km/h (1 Bft) O-SO 11.8 C 24.8 C
06.05.2003 20:00 22.9 C 45 % 1019.0 hPa 0.0 l/m 0.2 km/h (0 Bft) NO 10.1 C 22.9 C
06.05.2003 21:00 21.4 C 48 % 1019.4 hPa 0.0 l/m 1.2 km/h (1 Bft) NO 9.8 C 21.4 C
06.05.2003 22:00 19.7 C 55 % 1020.0 hPa 0.0 l/m 0.5 km/h (0 Bft) NO 10.3 C 19.7 C
06.05.2003 23:00 18.8 C 60 % 1021.1 hPa 0.0 l/m 0.8 km/h (0 Bft) O-SO 10.8 C 18.8 C
07.05.2003 00:00 18.9 C 60 % 1021.1 hPa 0.0 l/m 1.4 km/h (1 Bft) N 11.1 C 18.9 C
07.05.2003 01:00 18.2 C 66 % 1021.4 hPa 0.0 l/m 1.4 km/h (1 Bft) N 11.8 C 18.2 C
07.05.2003 02:00 16.9 C 75 % 1022.1 hPa 0.0 l/m 0.4 km/h (0 Bft) W-NW 12.3 C 16.9 C
07.05.2003 03:00 15.2 C 83 % 1022.1 hPa 0.0 l/m 0.7 km/h (0 Bft) NW 12.4 C 15.2 C
07.05.2003 04:00 14.2 C 90 % 1022.1 hPa 0.0 l/m 0.4 km/h (0 Bft) NW 12.6 C 14.2 C
07.05.2003 05:00 13.3 C 92 % 1022.1 hPa 0.0 l/m 0.3 km/h (0 Bft) N 12.1 C 13.3 C
07.05.2003 06:00 12.8 C 93 % 1022.2 hPa 0.0 l/m 0.0 km/h (0 Bft) N 11.8 C 12.8 C
07.05.2003 07:00 13.0 C 89 % 1022.2 hPa 0.0 l/m 0.7 km/h (0 Bft) NW 11.1 C 13.0 C
07.05.2003 08:00 14.1 C 84 % 1022.2 hPa 0.0 l/m 0.4 km/h (0 Bft) N-NW 11.5 C 14.1 C
07.05.2003 09:00 16.5 C 75 % 1022.1 hPa 0.0 l/m 1.2 km/h (1 Bft) W-NW 12.0 C 16.5 C
07.05.2003 10:00 20.2 C 62 % 1021.7 hPa 0.0 l/m 3.9 km/h (1 Bft) O-SO 12.8 C 20.2 C
07.05.2003 11:00 22.9 C 55 % 1021.1 hPa 0.0 l/m 10.3 km/h (2 Bft) O-SO 13.2 C 22.9 C
07.05.2003 12:00 24.7 C 44 % 1020.9 hPa 0.0 l/m 13.1 km/h (3 Bft) O-SO 11.4 C 24.7 C
07.05.2003 13:00 26.5 C 39 % 1019.9 hPa 0.0 l/m 17.2 km/h (3 Bft) O-SO 11.4 C 26.5 C
07.05.2003 14:00 27.7 C 37 % 1019.0 hPa 0.0 l/m 19.5 km/h (3 Bft) O-SO 11.8 C 27.7 C
07.05.2003 15:00 28.7 C 35 % 1018.2 hPa 0.0 l/m 14.5 km/h (3 Bft) O-SO 11.8 C 28.7 C
07.05.2003 16:00 28.9 C 34 % 1017.9 hPa 0.0 l/m 20.5 km/h (4 Bft) O-SO 11.2 C 28.9 C
07.05.2003 17:00 28.1 C 35 % 1016.9 hPa 0.0 l/m 16.5 km/h (3 Bft) O-SO 11.0 C 28.1 C
07.05.2003 18:00 27.4 C 38 % 1016.9 hPa 0.0 l/m 3.1 km/h (1 Bft) NO 11.7 C 27.4 C
07.05.2003 19:00 25.9 C 43 % 1016.9 hPa 0.0 l/m 2.2 km/h (1 Bft) O 12.5 C 25.9 C
07.05.2003 20:00 23.7 C 48 % 1016.9 hPa 0.0 l/m 1.4 km/h (1 Bft) O-NO 12.0 C 23.7 C
07.05.2003 21:00 21.7 C 54 % 1017.8 hPa 0.0 l/m 0.4 km/h (0 Bft) O-NO 11.9 C 21.7 C
07.05.2003 22:00 20.1 C 62 % 1018.0 hPa 0.0 l/m 1.1 km/h (1 Bft) O-SO 12.4 C 20.1 C
07.05.2003 23:00 18.4 C 69 % 1018.2 hPa 0.0 l/m 0.0 km/h (0 Bft) N 12.6 C 18.4 C
08.05.2003 00:00 17.4 C 79 % 1019.0 hPa 0.0 l/m 0.0 km/h (0 Bft) N 13.7 C 17.4 C
08.05.2003 01:00 17.1 C 76 % 1019.5 hPa 0.0 l/m 0.0 km/h (0 Bft) N 12.8 C 17.1 C
08.05.2003 02:00 15.7 C 81 % 1020.0 hPa 0.0 l/m 0.6 km/h (0 Bft) O 12.4 C 15.7 C
08.05.2003 03:00 14.5 C 89 % 1020.0 hPa 0.0 l/m 2.7 km/h (1 Bft) O 12.6 C 14.5 C
08.05.2003 04:00 13.9 C 91 % 1020.0 hPa 0.0 l/m 2.7 km/h (1 Bft) O-SO 12.4 C 13.9 C
08.05.2003 05:00 13.4 C 95 % 1020.0 hPa 0.0 l/m 4.4 km/h (1 Bft) O-SO 12.6 C 13.4 C
08.05.2003 06:00 13.7 C 94 % 1020.0 hPa 0.0 l/m 1.7 km/h (1 Bft) O-SO 12.8 C 13.7 C
08.05.2003 07:00 14.7 C 90 % 1020.9 hPa 0.0 l/m 0.0 km/h (0 Bft) N 13.1 C 14.7 C
08.05.2003 08:00 16.8 C 83 % 1021.1 hPa 0.0 l/m 1.5 km/h (1 Bft) O-SO 13.9 C 16.8 C
08.05.2003 09:00 19.1 C 71 % 1021.1 hPa 0.0 l/m 4.7 km/h (1 Bft) W-NW 13.8 C 19.1 C
08.05.2003 10:00 19.4 C 67 % 1021.1 hPa 0.0 l/m 12.6 km/h (3 Bft) W-NW 13.1 C 19.4 C
08.05.2003 11:00 20.1 C 63 % 1021.1 hPa 0.0 l/m 10.0 km/h (2 Bft) W-NW 13.0 C 20.1 C
08.05.2003 12:00 21.2 C 62 % 1020.7 hPa 0.0 l/m 8.6 km/h (2 Bft) W-NW 13.7 C 21.2 C
08.05.2003 13:00 23.1 C 56 % 1020.0 hPa 0.0 l/m 9.9 km/h (2 Bft) W-NW 13.9 C 23.1 C
08.05.2003 14:00 25.0 C 49 % 1019.3 hPa 0.0 l/m 5.3 km/h (1 Bft) W-NW 13.5 C 25.0 C
08.05.2003 15:00 26.2 C 44 % 1018.6 hPa 0.0 l/m 6.1 km/h (2 Bft) W-NW 12.9 C 26.2 C
08.05.2003 16:00 27.2 C 42 % 1018.0 hPa 0.0 l/m 3.5 km/h (1 Bft) W 13.1 C 27.2 C
08.05.2003 17:00 27.5 C 43 % 1016.8 hPa 0.0 l/m 3.2 km/h (1 Bft) W-NW 13.8 C 27.5 C
08.05.2003 18:00 24.1 C 50 % 1016.3 hPa 0.0 l/m 1.1 km/h (0 Bft) W 12.8 C 24.1 C
08.05.2003 19:00 22.7 C 56 % 1016.3 hPa 0.0 l/m 0.8 km/h (0 Bft) W-NW 13.4 C 22.7 C
08.05.2003 20:00 18.1 C 81 % 1016.4 hPa 2.4 l/m 41.1 km/h (6 Bft) NW 14.4 C 18.1 C
08.05.2003 21:00 16.4 C 93 % 1018.0 hPa 0.0 l/m 4.3 km/h (1 Bft) O-SO 15.3 C 16.4 C
08.05.2003 22:00 16.1 C 95 % 1019.5 hPa 0.9 l/m 0.3 km/h (0 Bft) W-NW 15.3 C 16.1 C
08.05.2003 23:00 15.6 C 99 % 1019.4 hPa 1.8 l/m 24.1 km/h (4 Bft) NW 15.5 C 15.6 C
09.05.2003 00:00 14.9 C 100 % 1019.4 hPa 0.3 l/m 3.4 km/h (1 Bft) SO 14.9 C 14.9 C
09.05.2003 01:00 14.4 C 100 % 1019.8 hPa 0.3 l/m 2.1 km/h (1 Bft) SO 14.4 C 14.4 C
09.05.2003 02:00 13.9 C 100 % 1019.4 hPa 0.0 l/m 0.0 km/h (0 Bft) N 13.9 C 13.9 C
09.05.2003 03:00 13.4 C 100 % 1019.4 hPa 0.0 l/m 0.0 km/h (0 Bft) N 13.4 C 13.4 C
09.05.2003 04:00 13.6 C 100 % 1019.4 hPa 0.0 l/m 0.0 km/h (0 Bft) N 13.6 C 13.6 C
09.05.2003 05:00 13.4 C 100 % 1018.9 hPa 0.3 l/m 0.0 km/h (0 Bft) N 13.4 C 13.4 C
09.05.2003 06:00 13.6 C 100 % 1018.4 hPa 0.0 l/m 0.0 km/h (0 Bft) N 13.6 C 13.6 C
09.05.2003 07:00 13.6 C 100 % 1018.4 hPa 0.0 l/m 0.1 km/h (0 Bft) N 13.6 C 13.6 C
09.05.2003 08:00 14.1 C 100 % 1018.4 hPa 0.0 l/m 0.0 km/h (0 Bft) N 14.1 C 14.1 C
09.05.2003 09:00 15.0 C 90 % 1018.4 hPa 0.0 l/m 3.8 km/h (1 Bft) W-NW 13.4 C 15.0 C
09.05.2003 10:00 16.2 C 79 % 1018.4 hPa 0.0 l/m 5.5 km/h (1 Bft) W-NW 12.5 C 16.2 C
09.05.2003 11:00 16.2 C 76 % 1018.4 hPa 0.0 l/m 11.7 km/h (2 Bft) W-NW 11.9 C 16.2 C
09.05.2003 12:00 17.5 C 72 % 1018.3 hPa 0.0 l/m 7.1 km/h (2 Bft) W 12.4 C 17.5 C
09.05.2003 13:00 19.3 C 63 % 1017.3 hPa 0.0 l/m 5.5 km/h (1 Bft) W 12.1 C 19.3 C
09.05.2003 14:00 19.5 C 60 % 1017.0 hPa 0.0 l/m 4.0 km/h (1 Bft) W 11.6 C 19.5 C
09.05.2003 15:00 17.7 C 73 % 1017.0 hPa 0.0 l/m 5.8 km/h (2 Bft) SO 12.6 C 17.7 C
09.05.2003 16:00 15.7 C 88 % 1017.3 hPa 0.3 l/m 4.1 km/h (1 Bft) SO 13.6 C 15.7 C
09.05.2003 17:00 13.9 C 94 % 1017.3 hPa 0.3 l/m 8.5 km/h (2 Bft) SO 12.8 C 13.9 C
09.05.2003 18:00 13.8 C 93 % 1017.9 hPa 0.6 l/m 3.8 km/h (1 Bft) O-SO 12.7 C 13.8 C
09.05.2003 19:00 13.6 C 97 % 1018.4 hPa 0.6 l/m 2.7 km/h (1 Bft) O-SO 13.1 C 13.6 C
09.05.2003 20:00 13.3 C 100 % 1018.4 hPa 0.0 l/m 1.0 km/h (0 Bft) O-SO 13.3 C 13.3 C
09.05.2003 21:00 13.1 C 100 % 1019.2 hPa 0.3 l/m 0.1 km/h (0 Bft) O-SO 13.1 C 13.1 C
09.05.2003 22:00 12.8 C 100 % 1019.4 hPa 0.0 l/m 0.1 km/h (0 Bft) N 12.8 C 12.8 C
09.05.2003 23:00 12.7 C 100 % 1019.4 hPa 0.0 l/m 0.3 km/h (0 Bft) O-SO 12.7 C 12.7 C
10.05.2003 00:00 12.7 C 100 % 1019.4 hPa 0.0 l/m 0.0 km/h (0 Bft) N 12.7 C 12.7 C
10.05.2003 01:00 12.6 C 100 % 1019.4 hPa 0.0 l/m 0.0 km/h (0 Bft) N 12.6 C 12.6 C
10.05.2003 02:00 12.5 C 100 % 1019.4 hPa 0.0 l/m 0.0 km/h (0 Bft) N 12.5 C 12.5 C
10.05.2003 03:00 12.4 C 100 % 1019.4 hPa 0.0 l/m 0.0 km/h (0 Bft) N 12.4 C 12.4 C
10.05.2003 04:00 12.1 C 100 % 1019.4 hPa 0.0 l/m 0.0 km/h (0 Bft) N 12.1 C 12.1 C
10.05.2003 05:00 12.0 C 100 % 1019.4 hPa 0.0 l/m 0.0 km/h (0 Bft) N 12.0 C 12.0 C
10.05.2003 06:00 11.8 C 100 % 1019.4 hPa 0.0 l/m 0.0 km/h (0 Bft) W-NW 11.8 C 11.8 C
10.05.2003 07:00 11.9 C 100 % 1019.4 hPa 0.0 l/m 0.6 km/h (0 Bft) W-NW 11.9 C 11.9 C
10.05.2003 08:00 12.9 C 99 % 1019.9 hPa 0.0 l/m 0.0 km/h (0 Bft) N 12.7 C 12.9 C
10.05.2003 09:00 14.1 C 88 % 1020.1 hPa 0.0 l/m 0.0 km/h (0 Bft) N 12.2 C 14.1 C
10.05.2003 10:00 15.5 C 81 % 1019.5 hPa 0.0 l/m 0.2 km/h (0 Bft) N 12.2 C 15.5 C
10.05.2003 11:00 17.0 C 72 % 1019.6 hPa 0.0 l/m 1.1 km/h (1 Bft) W-NW 11.9 C 17.0 C
10.05.2003 12:00 18.2 C 62 % 1019.4 hPa 0.0 l/m 5.2 km/h (1 Bft) NW 10.9 C 18.2 C
10.05.2003 13:00 18.8 C 57 % 1018.7 hPa 0.0 l/m 6.5 km/h (2 Bft) W-NW 9.9 C 18.8 C
10.05.2003 14:00 19.7 C 52 % 1018.4 hPa 0.0 l/m 6.3 km/h (2 Bft) W-NW 9.6 C 19.7 C
10.05.2003 15:00 20.1 C 51 % 1018.4 hPa 0.0 l/m 8.8 km/h (2 Bft) W-NW 9.6 C 20.1 C
10.05.2003 16:00 19.4 C 52 % 1018.4 hPa 0.0 l/m 11.6 km/h (2 Bft) W-NW 9.3 C 19.4 C
10.05.2003 17:00 19.8 C 54 % 1018.4 hPa 0.0 l/m 2.2 km/h (1 Bft) W-NW 10.3 C 19.8 C
10.05.2003 18:00 19.2 C 59 % 1018.4 hPa 0.0 l/m 0.1 km/h (0 Bft) N 11.1 C 19.2 C
10.05.2003 19:00 18.2 C 63 % 1018.4 hPa 0.0 l/m 0.1 km/h (0 Bft) N-NO 11.1 C 18.2 C
10.05.2003 20:00 17.2 C 65 % 1018.4 hPa 0.0 l/m 0.0 km/h (0 Bft) N 10.7 C 17.2 C
10.05.2003 21:00 16.6 C 70 % 1019.2 hPa 0.0 l/m 0.1 km/h (0 Bft) W-NW 11.1 C 16.6 C
10.05.2003 22:00 16.0 C 73 % 1019.4 hPa 0.0 l/m 1.2 km/h (1 Bft) NW 11.2 C 16.0 C
10.05.2003 23:00 15.4 C 76 % 1019.4 hPa 0.0 l/m 0.1 km/h (0 Bft) NW 11.2 C 15.4 C
11.05.2003 00:00 14.9 C 77 % 1019.4 hPa 0.0 l/m 0.0 km/h (0 Bft) N 11.0 C 14.9 C
11.05.2003 01:00 14.5 C 78 % 1019.4 hPa 0.0 l/m 0.1 km/h (0 Bft) NW 10.7 C 14.5 C
11.05.2003 02:00 14.2 C 79 % 1019.4 hPa 0.0 l/m 0.1 km/h (0 Bft) N 10.5 C 14.2 C
11.05.2003 03:00 13.7 C 81 % 1019.4 hPa 0.0 l/m 0.0 km/h (0 Bft) N 10.5 C 13.7 C
11.05.2003 04:00 13.4 C 82 % 1019.5 hPa 0.0 l/m 0.0 km/h (0 Bft) N 10.4 C 13.4 C
11.05.2003 05:00 13.1 C 84 % 1019.4 hPa 0.0 l/m 0.0 km/h (0 Bft) N 10.5 C 13.1 C
11.05.2003 06:00 12.9 C 88 % 1019.5 hPa 0.0 l/m 1.2 km/h (1 Bft) W-NW 11.0 C 12.9 C
11.05.2003 07:00 13.4 C 85 % 1020.5 hPa 0.0 l/m 0.2 km/h (0 Bft) W-NW 11.0 C 13.4 C
11.05.2003 08:00 14.2 C 82 % 1020.5 hPa 0.0 l/m 1.8 km/h (1 Bft) NW 11.1 C 14.2 C
11.05.2003 09:00 15.0 C 78 % 1020.5 hPa 0.0 l/m 0.1 km/h (0 Bft) N 11.2 C 15.0 C
11.05.2003 10:00 16.0 C 75 % 1020.5 hPa 0.0 l/m 0.4 km/h (0 Bft) NW 11.4 C 16.0 C
11.05.2003 11:00 16.9 C 71 % 1020.5 hPa 0.0 l/m 0.4 km/h (0 Bft) W-NW 11.5 C 16.9 C
11.05.2003 12:00 17.7 C 68 % 1020.0 hPa 0.0 l/m 2.0 km/h (1 Bft) W-NW 11.7 C 17.7 C
11.05.2003 13:00 19.6 C 60 % 1019.4 hPa 0.0 l/m 2.7 km/h (1 Bft) W-NW 11.6 C 19.6 C
11.05.2003 14:00 21.0 C 55 % 1018.6 hPa 0.0 l/m 0.4 km/h (0 Bft) SO 11.7 C 21.0 C
11.05.2003 15:00 22.6 C 45 % 1018.4 hPa 0.0 l/m 1.5 km/h (1 Bft) W-NW 10.0 C 22.6 C
11.05.2003 16:00 22.7 C 43 % 1017.5 hPa 0.0 l/m 2.1 km/h (1 Bft) W-NW 9.3 C 22.7 C
11.05.2003 17:00 22.6 C 44 % 1017.3 hPa 0.0 l/m 2.4 km/h (1 Bft) SO 9.6 C 22.6 C
11.05.2003 18:00 22.5 C 47 % 1017.3 hPa 0.0 l/m 2.0 km/h (1 Bft) O-SO 10.6 C 22.5 C
11.05.2003 19:00 21.3 C 52 % 1016.9 hPa 0.0 l/m 0.0 km/h (0 Bft) N 11.1 C 21.3 C
11.05.2003 20:00 18.9 C 60 % 1016.3 hPa 0.0 l/m 0.0 km/h (0 Bft) N 10.8 C 18.9 C
11.05.2003 21:00 17.4 C 70 % 1017.2 hPa 0.0 l/m 0.7 km/h (0 Bft) O-SO 11.8 C 17.4 C
11.05.2003 22:00 16.4 C 78 % 1017.1 hPa 2.1 l/m 4.5 km/h (1 Bft) NW 12.5 C 16.4 C
11.05.2003 23:00 13.5 C 95 % 1017.3 hPa 0.0 l/m 0.7 km/h (0 Bft) NW 12.7 C 13.5 C
Min-Datum _ 05.05.03 05.05.03 05.05.03 - 05.05.03 - 05.05.03 05.05.03
_ Min-Zeit 05:40 14:40 18:04 - 00:01 - 10:10 06:07
Minimum _ 7.5 C 30 % 1011.7 hPa - 0.0 km/h (0 Bft) - 6.8 C 5.7 C
Max-Datum _ 07.05.03 05.05.03 07.05.03 08.05.03 08.05.03 - 08.05.03 07.05.03
_ Max-Zeit 15:51 06:07 06:54 20:28 20:28 - 21:07 15:51
Maximum _ 29.2 C 100 % 1023.2 hPa 2.4 l/m 96.1 km/h
NW (10 Bft)
- 16.5 C 29.2 C
Durchschnitt _ 17.6 C 72 % 1018.2 hPa #10.2 l/m 3.4 km/h (1 Bft) W-NW 11.7 C 17.6 C

Durchschnitt Minimum Temp.16.8 C
Durchschnitt Maximum Temp.18.6 C
© Kaiko 2003